Aviation Digital Data Service (ADDS)

Output produced by TAFs form (0942 UTC 20 December 2014)
found at http://aviationweather.gov/adds/tafs/
 
KRIL 200537Z 2006/2106 17003KT P6SM BKN180 
     FM201200 19003KT P6SM BKN050 BKN120 
     FM201800 VRB02KT P6SM BKN050 OVC100 
     FM210100 22004KT P6SM VCSH OVC080